sensor_id;sensor_type;location;lat;lon;timestamp;temperature;humidity
21844;DHT22;11084;52.482;9.108;2023-01-28T00:00:10;1.10;99.90
21844;DHT22;11084;52.482;9.108;2023-01-28T00:02:38;1.10;99.90
21844;DHT22;11084;52.482;9.108;2023-01-28T00:05:04;1.10;99.90
21844;DHT22;11084;52.482;9.108;2023-01-28T00:07:31;1.10;99.90
21844;DHT22;11084;52.482;9.108;2023-01-28T00:09:57;1.10;99.90
21844;DHT22;11084;52.482;9.108;2023-01-28T00:12:22;1.10;99.90
21844;DHT22;11084;52.482;9.108;2023-01-28T00:17:15;1.10;99.90
21844;DHT22;11084;52.482;9.108;2023-01-28T00:19:41;1.10;99.90
21844;DHT22;11084;52.482;9.108;2023-01-28T00:22:09;1.10;99.90
21844;DHT22;11084;52.482;9.108;2023-01-28T00:24:36;1.10;99.90
21844;DHT22;11084;52.482;9.108;2023-01-28T00:27:02;1.10;99.90
21844;DHT22;11084;52.482;9.108;2023-01-28T00:29:29;1.10;99.90
21844;DHT22;11084;52.482;9.108;2023-01-28T00:31:57;1.00;99.90
21844;DHT22;11084;52.482;9.108;2023-01-28T00:34:23;1.00;99.90
21844;DHT22;11084;52.482;9.108;2023-01-28T00:36:49;1.10;99.90
21844;DHT22;11084;52.482;9.108;2023-01-28T00:39:25;1.10;99.90
21844;DHT22;11084;52.482;9.108;2023-01-28T00:41:52;1.10;99.90
21844;DHT22;11084;52.482;9.108;2023-01-28T00:44:20;1.10;99.90
21844;DHT22;11084;52.482;9.108;2023-01-28T00:46:46;1.00;99.90
21844;DHT22;11084;52.482;9.108;2023-01-28T00:49:12;1.00;99.90
21844;DHT22;11084;52.482;9.108;2023-01-28T00:51:40;1.10;99.90
21844;DHT22;11084;52.482;9.108;2023-01-28T00:54:07;1.00;99.90
21844;DHT22;11084;52.482;9.108;2023-01-28T00:56:35;1.00;99.90
21844;DHT22;11084;52.482;9.108;2023-01-28T01:01:28;0.90;99.90
21844;DHT22;11084;52.482;9.108;2023-01-28T01:03:55;1.00;99.90
21844;DHT22;11084;52.482;9.108;2023-01-28T01:06:38;1.00;99.90
21844;DHT22;11084;52.482;9.108;2023-01-28T01:09:07;0.90;99.90
21844;DHT22;11084;52.482;9.108;2023-01-28T01:11:35;1.00;99.90
21844;DHT22;11084;52.482;9.108;2023-01-28T01:14:02;0.90;99.90
21844;DHT22;11084;52.482;9.108;2023-01-28T01:16:32;1.00;99.90
21844;DHT22;11084;52.482;9.108;2023-01-28T01:19:01;1.00;99.90
21844;DHT22;11084;52.482;9.108;2023-01-28T01:21:28;1.00;99.90
21844;DHT22;11084;52.482;9.108;2023-01-28T01:26:22;1.00;99.90
21844;DHT22;11084;52.482;9.108;2023-01-28T01:28:50;1.00;99.90
21844;DHT22;11084;52.482;9.108;2023-01-28T01:31:19;0.90;99.90
21844;DHT22;11084;52.482;9.108;2023-01-28T01:33:47;1.00;99.90
21844;DHT22;11084;52.482;9.108;2023-01-28T01:36:17;0.90;99.90
21844;DHT22;11084;52.482;9.108;2023-01-28T01:38:46;0.90;99.90
21844;DHT22;11084;52.482;9.108;2023-01-28T01:41:25;1.00;99.90
21844;DHT22;11084;52.482;9.108;2023-01-28T01:47:44;0.90;99.90
21844;DHT22;11084;52.482;9.108;2023-01-28T01:53:31;0.90;99.90
21844;DHT22;11084;52.482;9.108;2023-01-28T01:56:05;0.90;99.90
21844;DHT22;11084;52.482;9.108;2023-01-28T01:58:35;0.90;99.90
21844;DHT22;11084;52.482;9.108;2023-01-28T02:01:04;0.90;99.90
21844;DHT22;11084;52.482;9.108;2023-01-28T02:03:46;0.90;99.90
21844;DHT22;11084;52.482;9.108;2023-01-28T02:06:21;0.90;99.90
21844;DHT22;11084;52.482;9.108;2023-01-28T02:08:47;1.00;99.90
21844;DHT22;11084;52.482;9.108;2023-01-28T02:11:13;0.80;99.90
21844;DHT22;11084;52.482;9.108;2023-01-28T02:13:48;0.80;99.90
21844;DHT22;11084;52.482;9.108;2023-01-28T02:16:15;0.80;99.90
21844;DHT22;11084;52.482;9.108;2023-01-28T02:18:43;0.90;99.90
21844;DHT22;11084;52.482;9.108;2023-01-28T02:21:47;0.90;99.90
21844;DHT22;11084;52.482;9.108;2023-01-28T02:30:40;0.90;99.90
21844;DHT22;11084;52.482;9.108;2023-01-28T02:33:13;0.90;99.90
21844;DHT22;11084;52.482;9.108;2023-01-28T02:35:51;0.80;99.90
21844;DHT22;11084;52.482;9.108;2023-01-28T02:38:32;0.80;99.90
21844;DHT22;11084;52.482;9.108;2023-01-28T02:41:18;0.80;99.90
21844;DHT22;11084;52.482;9.108;2023-01-28T02:49:38;0.80;99.90
21844;DHT22;11084;52.482;9.108;2023-01-28T02:55:44;0.80;99.90
21844;DHT22;11084;52.482;9.108;2023-01-28T03:01:27;0.80;99.90
21844;DHT22;11084;52.482;9.108;2023-01-28T03:04:33;0.80;99.90
21844;DHT22;11084;52.482;9.108;2023-01-28T03:07:10;0.80;99.90
21844;DHT22;11084;52.482;9.108;2023-01-28T03:09:45;0.80;99.90
21844;DHT22;11084;52.482;9.108;2023-01-28T03:12:21;0.80;99.90
21844;DHT22;11084;52.482;9.108;2023-01-28T03:15:20;0.90;99.90
21844;DHT22;11084;52.482;9.108;2023-01-28T03:18:14;-0.30;99.90
21844;DHT22;11084;52.482;9.108;2023-01-28T03:21:13;0.80;99.90
21844;DHT22;11084;52.482;9.108;2023-01-28T03:24:20;0.80;99.90
21844;DHT22;11084;52.482;9.108;2023-01-28T03:27:23;0.80;99.90
21844;DHT22;11084;52.482;9.108;2023-01-28T03:31:08;0.80;99.90
21844;DHT22;11084;52.482;9.108;2023-01-28T03:33:47;0.70;99.90
21844;DHT22;11084;52.482;9.108;2023-01-28T03:36:34;0.70;99.90
21844;DHT22;11084;52.482;9.108;2023-01-28T03:39:36;0.70;99.90
21844;DHT22;11084;52.482;9.108;2023-01-28T03:42:09;0.70;99.90
21844;DHT22;11084;52.482;9.108;2023-01-28T03:44:48;0.80;99.90
21844;DHT22;11084;52.482;9.108;2023-01-28T03:49:50;0.70;99.90
21844;DHT22;11084;52.482;9.108;2023-01-28T03:52:25;0.70;99.90
21844;DHT22;11084;52.482;9.108;2023-01-28T03:55:08;0.70;99.90
21844;DHT22;11084;52.482;9.108;2023-01-28T03:57:39;0.60;99.90
21844;DHT22;11084;52.482;9.108;2023-01-28T04:00:06;0.60;99.90
21844;DHT22;11084;52.482;9.108;2023-01-28T04:05:13;0.70;99.90
21844;DHT22;11084;52.482;9.108;2023-01-28T04:10:33;0.60;99.90
21844;DHT22;11084;52.482;9.108;2023-01-28T04:13:23;0.60;99.90
21844;DHT22;11084;52.482;9.108;2023-01-28T04:15:49;0.60;99.90
21844;DHT22;11084;52.482;9.108;2023-01-28T04:18:16;0.50;99.90
21844;DHT22;11084;52.482;9.108;2023-01-28T04:23:10;0.60;99.90
21844;DHT22;11084;52.482;9.108;2023-01-28T04:30:33;0.60;99.90
21844;DHT22;11084;52.482;9.108;2023-01-28T04:33:05;0.60;99.90
21844;DHT22;11084;52.482;9.108;2023-01-28T04:36:01;0.60;99.90
21844;DHT22;11084;52.482;9.108;2023-01-28T04:39:01;0.60;99.90
21844;DHT22;11084;52.482;9.108;2023-01-28T04:41:36;0.60;99.90
21844;DHT22;11084;52.482;9.108;2023-01-28T04:44:13;0.60;99.90
21844;DHT22;11084;52.482;9.108;2023-01-28T04:47:04;0.60;99.90
21844;DHT22;11084;52.482;9.108;2023-01-28T04:49:53;0.50;99.90
21844;DHT22;11084;52.482;9.108;2023-01-28T04:52:51;0.50;99.90
21844;DHT22;11084;52.482;9.108;2023-01-28T04:55:41;0.50;99.90
21844;DHT22;11084;52.482;9.108;2023-01-28T04:58:07;0.50;99.90
21844;DHT22;11084;52.482;9.108;2023-01-28T05:00:34;0.50;99.90
21844;DHT22;11084;52.482;9.108;2023-01-28T05:10:24;0.50;99.90
21844;DHT22;11084;52.482;9.108;2023-01-28T05:12:52;0.50;99.90
21844;DHT22;11084;52.482;9.108;2023-01-28T05:15:20;0.50;99.90
21844;DHT22;11084;52.482;9.108;2023-01-28T05:17:48;0.60;99.90
21844;DHT22;11084;52.482;9.108;2023-01-28T05:20:19;0.50;99.90
21844;DHT22;11084;52.482;9.108;2023-01-28T05:25:25;0.40;99.90
21844;DHT22;11084;52.482;9.108;2023-01-28T05:27:52;0.50;99.90
21844;DHT22;11084;52.482;9.108;2023-01-28T05:30:19;0.50;99.90
21844;DHT22;11084;52.482;9.108;2023-01-28T05:32:46;0.40;99.90
21844;DHT22;11084;52.482;9.108;2023-01-28T05:35:15;0.50;99.90
21844;DHT22;11084;52.482;9.108;2023-01-28T05:37:43;-1.20;99.90
21844;DHT22;11084;52.482;9.108;2023-01-28T05:40:10;0.40;99.90
21844;DHT22;11084;52.482;9.108;2023-01-28T05:42:37;0.40;99.90
21844;DHT22;11084;52.482;9.108;2023-01-28T05:45:32;0.50;99.90
21844;DHT22;11084;52.482;9.108;2023-01-28T05:48:02;0.40;99.90
21844;DHT22;11084;52.482;9.108;2023-01-28T05:50:46;0.40;99.90
21844;DHT22;11084;52.482;9.108;2023-01-28T05:53:19;0.40;99.90
21844;DHT22;11084;52.482;9.108;2023-01-28T05:55:50;0.40;99.90
21844;DHT22;11084;52.482;9.108;2023-01-28T05:58:19;1.00;99.90
21844;DHT22;11084;52.482;9.108;2023-01-28T06:00:46;0.40;99.90
21844;DHT22;11084;52.482;9.108;2023-01-28T06:03:13;0.40;99.90
21844;DHT22;11084;52.482;9.108;2023-01-28T06:05:39;0.40;99.90
21844;DHT22;11084;52.482;9.108;2023-01-28T06:08:06;0.40;99.90
21844;DHT22;11084;52.482;9.108;2023-01-28T06:10:32;0.40;99.90
21844;DHT22;11084;52.482;9.108;2023-01-28T06:15:57;-1.40;99.90
21844;DHT22;11084;52.482;9.108;2023-01-28T06:18:34;0.40;99.90
21844;DHT22;11084;52.482;9.108;2023-01-28T06:23:28;0.40;99.90
21844;DHT22;11084;52.482;9.108;2023-01-28T06:25:55;0.40;99.90
21844;DHT22;11084;52.482;9.108;2023-01-28T06:28:23;0.40;99.90
21844;DHT22;11084;52.482;9.108;2023-01-28T06:30:50;0.60;99.90
21844;DHT22;11084;52.482;9.108;2023-01-28T06:33:18;0.30;99.90
21844;DHT22;11084;52.482;9.108;2023-01-28T06:38:11;0.30;99.90
21844;DHT22;11084;52.482;9.108;2023-01-28T06:40:38;0.30;99.90
21844;DHT22;11084;52.482;9.108;2023-01-28T06:43:05;0.30;99.90
21844;DHT22;11084;52.482;9.108;2023-01-28T06:45:32;0.30;99.90
21844;DHT22;11084;52.482;9.108;2023-01-28T06:47:58;0.30;99.90
21844;DHT22;11084;52.482;9.108;2023-01-28T06:50:24;0.30;99.90
21844;DHT22;11084;52.482;9.108;2023-01-28T06:52:50;0.30;99.90
21844;DHT22;11084;52.482;9.108;2023-01-28T06:55:16;0.20;99.90
21844;DHT22;11084;52.482;9.108;2023-01-28T07:00:11;0.30;99.90
21844;DHT22;11084;52.482;9.108;2023-01-28T07:05:07;0.20;99.90
21844;DHT22;11084;52.482;9.108;2023-01-28T07:10:02;0.20;99.90
21844;DHT22;11084;52.482;9.108;2023-01-28T07:17:21;0.20;99.90
21844;DHT22;11084;52.482;9.108;2023-01-28T07:22:14;0.30;99.90
21844;DHT22;11084;52.482;9.108;2023-01-28T07:24:41;0.30;99.90
21844;DHT22;11084;52.482;9.108;2023-01-28T07:27:10;0.20;99.90
21844;DHT22;11084;52.482;9.108;2023-01-28T07:29:36;0.30;99.90
21844;DHT22;11084;52.482;9.108;2023-01-28T07:32:02;0.30;99.90
21844;DHT22;11084;52.482;9.108;2023-01-28T07:39:22;0.30;99.90
21844;DHT22;11084;52.482;9.108;2023-01-28T07:41:49;0.30;99.90
21844;DHT22;11084;52.482;9.108;2023-01-28T07:46:57;0.30;99.90
21844;DHT22;11084;52.482;9.108;2023-01-28T07:51:50;0.30;99.90
21844;DHT22;11084;52.482;9.108;2023-01-28T07:54:17;0.30;99.90
21844;DHT22;11084;52.482;9.108;2023-01-28T07:56:43;0.30;99.90
21844;DHT22;11084;52.482;9.108;2023-01-28T08:04:01;0.40;99.90
21844;DHT22;11084;52.482;9.108;2023-01-28T08:08:54;1.90;99.90
21844;DHT22;11084;52.482;9.108;2023-01-28T08:13:48;0.40;99.90
21844;DHT22;11084;52.482;9.108;2023-01-28T08:16:14;0.50;99.90
21844;DHT22;11084;52.482;9.108;2023-01-28T08:18:40;0.40;99.90
21844;DHT22;11084;52.482;9.108;2023-01-28T08:21:06;0.50;99.90
21844;DHT22;11084;52.482;9.108;2023-01-28T08:23:33;0.50;99.90
21844;DHT22;11084;52.482;9.108;2023-01-28T08:26:00;0.50;99.90
21844;DHT22;11084;52.482;9.108;2023-01-28T08:28:26;0.60;99.90
21844;DHT22;11084;52.482;9.108;2023-01-28T08:30:52;0.60;99.90
21844;DHT22;11084;52.482;9.108;2023-01-28T08:35:45;0.60;99.90
21844;DHT22;11084;52.482;9.108;2023-01-28T08:38:12;0.60;99.90
21844;DHT22;11084;52.482;9.108;2023-01-28T08:40:42;0.60;99.90
21844;DHT22;11084;52.482;9.108;2023-01-28T08:43:09;0.60;99.90
21844;DHT22;11084;52.482;9.108;2023-01-28T08:45:35;0.70;99.90
21844;DHT22;11084;52.482;9.108;2023-01-28T08:48:03;0.70;99.90
21844;DHT22;11084;52.482;9.108;2023-01-28T08:50:35;0.70;99.90
21844;DHT22;11084;52.482;9.108;2023-01-28T08:53:08;0.70;99.90
21844;DHT22;11084;52.482;9.108;2023-01-28T08:58:08;0.70;99.90
21844;DHT22;11084;52.482;9.108;2023-01-28T09:00:36;0.70;99.90
21844;DHT22;11084;52.482;9.108;2023-01-28T09:03:03;0.70;99.90
21844;DHT22;11084;52.482;9.108;2023-01-28T09:05:30;0.70;99.90
21844;DHT22;11084;52.482;9.108;2023-01-28T09:08:04;0.70;99.90
21844;DHT22;11084;52.482;9.108;2023-01-28T09:13:13;0.70;99.90
21844;DHT22;11084;52.482;9.108;2023-01-28T09:15:41;0.80;99.90
21844;DHT22;11084;52.482;9.108;2023-01-28T09:18:07;0.80;99.90
21844;DHT22;11084;52.482;9.108;2023-01-28T09:20:33;0.80;99.90
21844;DHT22;11084;52.482;9.108;2023-01-28T09:23:00;0.90;99.90
21844;DHT22;11084;52.482;9.108;2023-01-28T09:25:26;0.90;99.90
21844;DHT22;11084;52.482;9.108;2023-01-28T09:27:52;0.90;99.90
21844;DHT22;11084;52.482;9.108;2023-01-28T09:30:19;0.90;99.90
21844;DHT22;11084;52.482;9.108;2023-01-28T09:32:49;0.90;99.90
21844;DHT22;11084;52.482;9.108;2023-01-28T09:35:16;0.90;99.90
21844;DHT22;11084;52.482;9.108;2023-01-28T09:37:42;0.90;99.90
21844;DHT22;11084;52.482;9.108;2023-01-28T09:40:16;1.00;99.90
21844;DHT22;11084;52.482;9.108;2023-01-28T09:45:57;1.10;99.90
21844;DHT22;11084;52.482;9.108;2023-01-28T09:48:29;1.10;99.90
21844;DHT22;11084;52.482;9.108;2023-01-28T09:50:59;1.20;99.90
21844;DHT22;11084;52.482;9.108;2023-01-28T09:53:32;1.20;99.90
21844;DHT22;11084;52.482;9.108;2023-01-28T10:09:55;1.50;99.90
21844;DHT22;11084;52.482;9.108;2023-01-28T10:13:05;1.60;99.90
21844;DHT22;11084;52.482;9.108;2023-01-28T10:18:41;1.70;99.90
21844;DHT22;11084;52.482;9.108;2023-01-28T10:21:42;1.70;99.90
21844;DHT22;11084;52.482;9.108;2023-01-28T10:27:14;1.90;99.90
21844;DHT22;11084;52.482;9.108;2023-01-28T10:29:41;1.90;99.90
21844;DHT22;11084;52.482;9.108;2023-01-28T10:32:26;2.00;99.90
21844;DHT22;11084;52.482;9.108;2023-01-28T10:34:56;2.00;99.90
21844;DHT22;11084;52.482;9.108;2023-01-28T10:37:24;2.00;99.90
21844;DHT22;11084;52.482;9.108;2023-01-28T10:39:57;2.10;99.90
21844;DHT22;11084;52.482;9.108;2023-01-28T10:42:32;2.20;99.90
21844;DHT22;11084;52.482;9.108;2023-01-28T10:48:07;2.30;99.90
21844;DHT22;11084;52.482;9.108;2023-01-28T10:50:49;2.20;99.90
21844;DHT22;11084;52.482;9.108;2023-01-28T10:53:33;2.20;99.90
21844;DHT22;11084;52.482;9.108;2023-01-28T10:56:04;2.30;99.90
21844;DHT22;11084;52.482;9.108;2023-01-28T10:58:35;2.30;99.90
21844;DHT22;11084;52.482;9.108;2023-01-28T11:01:10;2.40;99.90
21844;DHT22;11084;52.482;9.108;2023-01-28T11:03:36;2.40;99.90
21844;DHT22;11084;52.482;9.108;2023-01-28T11:06:03;2.50;99.90
21844;DHT22;11084;52.482;9.108;2023-01-28T11:08:30;2.60;99.90
21844;DHT22;11084;52.482;9.108;2023-01-28T11:10:56;2.60;99.90
21844;DHT22;11084;52.482;9.108;2023-01-28T11:13:25;2.60;99.90
21844;DHT22;11084;52.482;9.108;2023-01-28T11:18:30;2.70;99.90
21844;DHT22;11084;52.482;9.108;2023-01-28T11:21:05;2.80;99.90
21844;DHT22;11084;52.482;9.108;2023-01-28T11:23:46;2.80;99.90
21844;DHT22;11084;52.482;9.108;2023-01-28T11:26:20;3.00;99.90
21844;DHT22;11084;52.482;9.108;2023-01-28T11:28:48;3.10;99.90
21844;DHT22;11084;52.482;9.108;2023-01-28T11:31:16;3.10;99.90
21844;DHT22;11084;52.482;9.108;2023-01-28T11:33:54;3.20;99.90
21844;DHT22;11084;52.482;9.108;2023-01-28T11:36:27;3.20;99.90
21844;DHT22;11084;52.482;9.108;2023-01-28T11:38:59;3.20;99.90
21844;DHT22;11084;52.482;9.108;2023-01-28T11:41:35;3.30;99.90
21844;DHT22;11084;52.482;9.108;2023-01-28T11:58:53;3.40;99.90
21844;DHT22;11084;52.482;9.108;2023-01-28T12:01:38;3.40;99.90
21844;DHT22;11084;52.482;9.108;2023-01-28T12:16:07;3.60;99.90
21844;DHT22;11084;52.482;9.108;2023-01-28T12:19:12;3.60;99.90
21844;DHT22;11084;52.482;9.108;2023-01-28T12:35:52;4.00;99.90
21844;DHT22;11084;52.482;9.108;2023-01-28T12:41:47;3.90;99.90
21844;DHT22;11084;52.482;9.108;2023-01-28T12:44:37;6.30;99.90
21844;DHT22;11084;52.482;9.108;2023-01-28T12:47:16;3.80;99.90
21844;DHT22;11084;52.482;9.108;2023-01-28T12:49:58;3.90;99.90
21844;DHT22;11084;52.482;9.108;2023-01-28T12:52:29;3.80;99.90
21844;DHT22;11084;52.482;9.108;2023-01-28T12:58:02;3.60;99.90
21844;DHT22;11084;52.482;9.108;2023-01-28T13:00:36;3.60;99.90
21844;DHT22;11084;52.482;9.108;2023-01-28T13:06:26;3.60;99.90
21844;DHT22;11084;52.482;9.108;2023-01-28T13:09:02;3.60;99.90
21844;DHT22;11084;52.482;9.108;2023-01-28T13:11:48;3.50;99.90
21844;DHT22;11084;52.482;9.108;2023-01-28T13:14:17;3.40;99.90
21844;DHT22;11084;52.482;9.108;2023-01-28T13:16:46;3.50;99.90
21844;DHT22;11084;52.482;9.108;2023-01-28T13:21:45;3.50;99.90
21844;DHT22;11084;52.482;9.108;2023-01-28T13:26:45;3.60;99.90
21844;DHT22;11084;52.482;9.108;2023-01-28T13:29:20;3.60;99.90
21844;DHT22;11084;52.482;9.108;2023-01-28T13:31:54;3.60;99.90
21844;DHT22;11084;52.482;9.108;2023-01-28T13:34:37;3.50;99.90
21844;DHT22;11084;52.482;9.108;2023-01-28T13:37:42;3.40;99.90
21844;DHT22;11084;52.482;9.108;2023-01-28T13:42:39;3.40;99.90
21844;DHT22;11084;52.482;9.108;2023-01-28T13:45:19;3.30;99.90
21844;DHT22;11084;52.482;9.108;2023-01-28T13:47:57;3.20;99.90
21844;DHT22;11084;52.482;9.108;2023-01-28T13:50:44;3.30;99.90
21844;DHT22;11084;52.482;9.108;2023-01-28T13:53:39;3.30;99.90
21844;DHT22;11084;52.482;9.108;2023-01-28T13:56:27;3.20;99.90
21844;DHT22;11084;52.482;9.108;2023-01-28T14:02:25;3.30;99.90
21844;DHT22;11084;52.482;9.108;2023-01-28T14:11:32;3.30;99.90
21844;DHT22;11084;52.482;9.108;2023-01-28T14:19:30;3.30;99.90
21844;DHT22;11084;52.482;9.108;2023-01-28T14:24:31;3.30;99.90
21844;DHT22;11084;52.482;9.108;2023-01-28T14:27:08;3.30;99.90
21844;DHT22;11084;52.482;9.108;2023-01-28T14:32:29;3.30;99.90
21844;DHT22;11084;52.482;9.108;2023-01-28T14:34:58;3.20;99.90
21844;DHT22;11084;52.482;9.108;2023-01-28T14:37:32;2.80;99.90
21844;DHT22;11084;52.482;9.108;2023-01-28T14:40:04;3.20;99.90
21844;DHT22;11084;52.482;9.108;2023-01-28T14:42:38;3.20;99.90
21844;DHT22;11084;52.482;9.108;2023-01-28T14:45:18;3.20;99.90
21844;DHT22;11084;52.482;9.108;2023-01-28T14:47:53;3.10;99.90
21844;DHT22;11084;52.482;9.108;2023-01-28T14:59:11;3.00;99.90
21844;DHT22;11084;52.482;9.108;2023-01-28T15:01:44;3.00;99.90
21844;DHT22;11084;52.482;9.108;2023-01-28T15:04:32;3.00;99.90
21844;DHT22;11084;52.482;9.108;2023-01-28T15:07:20;2.80;99.90
21844;DHT22;11084;52.482;9.108;2023-01-28T15:10:05;2.90;99.90
21844;DHT22;11084;52.482;9.108;2023-01-28T15:12:38;2.80;99.90
21844;DHT22;11084;52.482;9.108;2023-01-28T15:15:36;2.90;99.90
21844;DHT22;11084;52.482;9.108;2023-01-28T15:18:11;2.80;99.90
21844;DHT22;11084;52.482;9.108;2023-01-28T15:20:50;2.80;99.90
21844;DHT22;11084;52.482;9.108;2023-01-28T15:23:25;2.80;99.90
21844;DHT22;11084;52.482;9.108;2023-01-28T15:25:52;2.80;99.90
21844;DHT22;11084;52.482;9.108;2023-01-28T15:28:28;2.70;99.90
21844;DHT22;11084;52.482;9.108;2023-01-28T15:33:24;2.70;99.90
21844;DHT22;11084;52.482;9.108;2023-01-28T15:35:55;2.70;99.90
21844;DHT22;11084;52.482;9.108;2023-01-28T15:38:23;2.70;99.90
21844;DHT22;11084;52.482;9.108;2023-01-28T15:40:57;2.60;99.90
21844;DHT22;11084;52.482;9.108;2023-01-28T15:43:36;2.60;99.90
21844;DHT22;11084;52.482;9.108;2023-01-28T15:46:03;2.60;99.90
21844;DHT22;11084;52.482;9.108;2023-01-28T15:48:35;2.60;99.90
21844;DHT22;11084;52.482;9.108;2023-01-28T15:51:04;2.50;99.90
21844;DHT22;11084;52.482;9.108;2023-01-28T15:53:41;2.50;99.90
21844;DHT22;11084;52.482;9.108;2023-01-28T15:56:13;2.50;99.90
21844;DHT22;11084;52.482;9.108;2023-01-28T15:58:40;2.40;99.90
21844;DHT22;11084;52.482;9.108;2023-01-28T16:03:36;2.30;99.90
21844;DHT22;11084;52.482;9.108;2023-01-28T16:11:12;2.20;99.90
21844;DHT22;11084;52.482;9.108;2023-01-28T16:16:14;2.20;99.90
21844;DHT22;11084;52.482;9.108;2023-01-28T16:18:48;2.10;99.90
21844;DHT22;11084;52.482;9.108;2023-01-28T16:21:27;2.10;99.90
21844;DHT22;11084;52.482;9.108;2023-01-28T16:26:28;1.90;99.90
21844;DHT22;11084;52.482;9.108;2023-01-28T16:28:56;1.90;99.90
21844;DHT22;11084;52.482;9.108;2023-01-28T16:31:26;1.70;99.90
21844;DHT22;11084;52.482;9.108;2023-01-28T16:38:45;1.60;99.90
21844;DHT22;11084;52.482;9.108;2023-01-28T16:41:28;1.40;99.90
21844;DHT22;11084;52.482;9.108;2023-01-28T16:43:59;1.30;99.90
21844;DHT22;11084;52.482;9.108;2023-01-28T16:46:31;1.30;99.90
21844;DHT22;11084;52.482;9.108;2023-01-28T16:51:27;1.20;99.90
21844;DHT22;11084;52.482;9.108;2023-01-28T16:56:22;1.10;99.90
21844;DHT22;11084;52.482;9.108;2023-01-28T17:01:16;0.90;99.90
21844;DHT22;11084;52.482;9.108;2023-01-28T17:03:42;0.90;99.90
21844;DHT22;11084;52.482;9.108;2023-01-28T17:06:15;0.80;99.90
21844;DHT22;11084;52.482;9.108;2023-01-28T17:08:42;0.70;99.90
21844;DHT22;11084;52.482;9.108;2023-01-28T17:13:35;0.60;99.90
21844;DHT22;11084;52.482;9.108;2023-01-28T17:16:02;0.50;99.90
21844;DHT22;11084;52.482;9.108;2023-01-28T17:18:29;0.50;99.90
21844;DHT22;11084;52.482;9.108;2023-01-28T17:21:00;0.40;99.90
21844;DHT22;11084;52.482;9.108;2023-01-28T17:33:13;0.00;99.90
21844;DHT22;11084;52.482;9.108;2023-01-28T17:35:44;0.00;99.90
21844;DHT22;11084;52.482;9.108;2023-01-28T17:40:38;-0.10;99.90
21844;DHT22;11084;52.482;9.108;2023-01-28T17:43:04;-0.20;99.90
21844;DHT22;11084;52.482;9.108;2023-01-28T17:45:31;-0.20;99.90
21844;DHT22;11084;52.482;9.108;2023-01-28T17:47:57;-0.20;99.90
21844;DHT22;11084;52.482;9.108;2023-01-28T17:52:54;-0.40;99.90
21844;DHT22;11084;52.482;9.108;2023-01-28T17:55:24;-0.40;99.90
21844;DHT22;11084;52.482;9.108;2023-01-28T17:57:50;-0.50;99.90
21844;DHT22;11084;52.482;9.108;2023-01-28T18:00:17;-0.50;99.90
21844;DHT22;11084;52.482;9.108;2023-01-28T18:02:45;-0.50;99.90
21844;DHT22;11084;52.482;9.108;2023-01-28T18:10:08;-0.80;99.90
21844;DHT22;11084;52.482;9.108;2023-01-28T18:12:35;-0.70;99.90
21844;DHT22;11084;52.482;9.108;2023-01-28T18:17:27;-0.80;99.90
21844;DHT22;11084;52.482;9.108;2023-01-28T18:19:55;-0.90;99.90
21844;DHT22;11084;52.482;9.108;2023-01-28T18:22:22;-0.90;99.90
21844;DHT22;11084;52.482;9.108;2023-01-28T18:24:48;-1.00;99.90
21844;DHT22;11084;52.482;9.108;2023-01-28T18:37:02;-1.10;99.90
21844;DHT22;11084;52.482;9.108;2023-01-28T18:39:32;-1.10;99.90
21844;DHT22;11084;52.482;9.108;2023-01-28T18:41:59;-1.10;99.90
21844;DHT22;11084;52.482;9.108;2023-01-28T18:44:27;-1.00;99.90
21844;DHT22;11084;52.482;9.108;2023-01-28T18:46:58;-1.00;99.90
21844;DHT22;11084;52.482;9.108;2023-01-28T18:51:50;-1.00;99.90
21844;DHT22;11084;52.482;9.108;2023-01-28T18:56:45;-1.00;99.90
21844;DHT22;11084;52.482;9.108;2023-01-28T18:59:12;-1.00;99.90
21844;DHT22;11084;52.482;9.108;2023-01-28T19:01:39;-1.00;99.90
21844;DHT22;11084;52.482;9.108;2023-01-28T19:04:07;-0.90;99.90
21844;DHT22;11084;52.482;9.108;2023-01-28T19:06:34;-0.90;99.90
21844;DHT22;11084;52.482;9.108;2023-01-28T19:09:05;-0.80;99.90
21844;DHT22;11084;52.482;9.108;2023-01-28T19:11:33;-0.80;99.90
21844;DHT22;11084;52.482;9.108;2023-01-28T19:13:59;-0.80;99.90
21844;DHT22;11084;52.482;9.108;2023-01-28T19:18:58;-0.70;99.90
21844;DHT22;11084;52.482;9.108;2023-01-28T19:21:26;-0.70;99.90
21844;DHT22;11084;52.482;9.108;2023-01-28T19:23:58;-0.70;99.90
21844;DHT22;11084;52.482;9.108;2023-01-28T19:26:32;-0.60;99.90
21844;DHT22;11084;52.482;9.108;2023-01-28T19:28:58;-0.50;99.90
21844;DHT22;11084;52.482;9.108;2023-01-28T19:31:27;-0.50;99.90
21844;DHT22;11084;52.482;9.108;2023-01-28T19:33:55;-0.50;99.90
21844;DHT22;11084;52.482;9.108;2023-01-28T19:36:33;-0.40;99.90
21844;DHT22;11084;52.482;9.108;2023-01-28T19:39:01;-0.40;99.90
21844;DHT22;11084;52.482;9.108;2023-01-28T19:41:29;-0.40;99.90
21844;DHT22;11084;52.482;9.108;2023-01-28T19:43:56;-0.30;99.90
21844;DHT22;11084;52.482;9.108;2023-01-28T19:46:22;-0.30;99.90
21844;DHT22;11084;52.482;9.108;2023-01-28T19:48:48;-0.30;99.90
21844;DHT22;11084;52.482;9.108;2023-01-28T19:51:16;-0.30;99.90
21844;DHT22;11084;52.482;9.108;2023-01-28T19:53:42;-0.30;99.90
21844;DHT22;11084;52.482;9.108;2023-01-28T19:56:11;-0.20;99.90
21844;DHT22;11084;52.482;9.108;2023-01-28T19:58:41;-0.10;99.90
21844;DHT22;11084;52.482;9.108;2023-01-28T20:01:16;-0.10;99.90
21844;DHT22;11084;52.482;9.108;2023-01-28T20:03:55;-0.10;99.90
21844;DHT22;11084;52.482;9.108;2023-01-28T20:06:24;-0.10;99.90
21844;DHT22;11084;52.482;9.108;2023-01-28T20:09:01;-0.10;99.90
21844;DHT22;11084;52.482;9.108;2023-01-28T20:11:33;0.00;99.90
21844;DHT22;11084;52.482;9.108;2023-01-28T20:14:00;0.00;99.90
21844;DHT22;11084;52.482;9.108;2023-01-28T20:16:28;0.10;99.90
21844;DHT22;11084;52.482;9.108;2023-01-28T20:21:24;0.00;99.90
21844;DHT22;11084;52.482;9.108;2023-01-28T20:23:52;0.10;99.90
21844;DHT22;11084;52.482;9.108;2023-01-28T20:26:21;0.20;99.90
21844;DHT22;11084;52.482;9.108;2023-01-28T20:31:18;0.10;99.90
21844;DHT22;11084;52.482;9.108;2023-01-28T20:33:45;0.20;99.90
21844;DHT22;11084;52.482;9.108;2023-01-28T20:36:12;0.10;99.90
21844;DHT22;11084;52.482;9.108;2023-01-28T20:38:41;0.20;99.90
21844;DHT22;11084;52.482;9.108;2023-01-28T20:41:11;0.20;99.90
21844;DHT22;11084;52.482;9.108;2023-01-28T20:43:42;0.30;99.90
21844;DHT22;11084;52.482;9.108;2023-01-28T20:46:17;0.30;99.90
21844;DHT22;11084;52.482;9.108;2023-01-28T20:48:48;0.30;99.90
21844;DHT22;11084;52.482;9.108;2023-01-28T20:51:17;0.30;99.90
21844;DHT22;11084;52.482;9.108;2023-01-28T20:53:44;0.30;99.90
21844;DHT22;11084;52.482;9.108;2023-01-28T20:56:12;0.30;99.90
21844;DHT22;11084;52.482;9.108;2023-01-28T21:01:06;0.40;99.90
21844;DHT22;11084;52.482;9.108;2023-01-28T21:03:32;2.10;99.90
21844;DHT22;11084;52.482;9.108;2023-01-28T21:05:59;0.40;99.90
21844;DHT22;11084;52.482;9.108;2023-01-28T21:08:26;0.40;99.90
21844;DHT22;11084;52.482;9.108;2023-01-28T21:13:18;0.40;99.90
21844;DHT22;11084;52.482;9.108;2023-01-28T21:15:52;0.40;99.90
21844;DHT22;11084;52.482;9.108;2023-01-28T21:18:19;0.50;99.90